Cincinnati Municipal Airport Lunken Field (LUK)

 

Airport Diagram
Current Weather/Forecast (VFR Conditions)
METAR KLUK 182353Z 27005KT 10SM CLR 14/M01 A2987 RMK AO2 SLP116 T01391006 10189 20139 58001
TAF KLUK 182338Z 1900/1924 27003KT P6SM BKN100 TEMPO 1909/1912 00000KT 4SM BR SKC FM191200 24005KT P6SM FEW100 FM191700 25009G17KT P6SM FEW060 SCT200 FM192200 24007KT P6SM FEW200

Airport Information

All Charts
General
Chart Name View
AIRPORT DIAGRAM
AIRPORT DIAGRAM
TAKEOFF MINIMUMS
ALTERNATE MINIMUMS
TAKEOFF MINIMUMS
ALTERNATE MINIMUMS
HOT SPOT
HOT SPOT

Departures
Chart Name Download
ROCKT ONE (RNAV)
ROCKT ONE (RNAV), CONT.1
ROCKT ONE (RNAV)
ROCKT ONE (RNAV), CONT.1

Arrivals
Chart Name Download
BRUSH FOUR
BRUSH FOUR, CONT.1
CINCE NINE
HARDU FIVE
HARDU FIVE, CONT.1
HEDEE FOUR
HEDEE FOUR, CONT.1
SHELBYVILLE SIX
SHELBYVILLE SIX, CONT.1
BRUSH FOUR
BRUSH FOUR, CONT.1
CINCE NINE
HARDU FIVE
HARDU FIVE, CONT.1
HEDEE FOUR
HEDEE FOUR, CONT.1
SHELBYVILLE SIX
SHELBYVILLE SIX, CONT.1

Approaches
Chart Name Download
ILS OR LOC RWY 21L
RNAV (GPS) RWY 03R
RNAV (GPS) RWY 21L
RNAV (GPS) RWY 25
LOC BC RWY 03R
ILS OR LOC RWY 21L
RNAV (GPS) RWY 03R
RNAV (GPS) RWY 21L
RNAV (GPS) RWY 25
LOC BC RWY 03R


Airport Statistics
Departures Arrivals Local
All Collected Stats since June 2016: 169 122 6
2021 Stats: 20 18 1
April Stats: 6 3 0

Inbound Traffic (Arrivals) - 0

No inbound traffic.


Outbound Traffic (Departures) - 0

No outbound traffic.


Local Traffic (Pattern) - 0

No local traffic.